Time;durP1;ratioP1;P1;durP2;ratioP2;P2;SDS_P1;SDS_P2;PMS_P1;PMS_P2;Temp;Humidity;BMP_temperature;BMP_pressure;BME280_temperature;BME280_humidity;BME280_pressure;Samples;Min_cycle;Max_cycle;Signal;HPM_P1;HPM_P2
2022/12/10 00:01:24;;;;;;;60.50;32.07;;;2.00;99.90;;;;;;10258099;29;20634;-84
2022/12/10 00:06:29;;;;;;;72.63;36.43;;;2.30;99.90;;;;;;10257741;29;20236;-84
2022/12/10 00:11:32;;;;;;;64.50;33.20;;;1.90;99.90;;;;;;10257966;29;20193;-84
2022/12/10 00:16:35;;;;;;;67.27;33.33;;;1.80;99.90;;;;;;10256992;28;20264;-84
2022/12/10 00:21:38;;;;;;;64.00;36.03;;;2.30;99.90;;;;;;10256675;29;20222;-84
2022/12/10 00:26:40;;;;;;;72.90;36.47;;;2.40;99.90;;;;;;10255893;29;20626;-84
2022/12/10 00:31:43;;;;;;;55.43;31.40;;;2.50;99.90;;;;;;10239875;29;20242;-84
2022/12/10 00:36:48;;;;;;;59.67;33.27;;;2.50;99.90;;;;;;10256708;29;20565;-84
2022/12/10 00:41:51;;;;;;;52.93;27.97;;;2.30;99.90;;;;;;10254606;29;20714;-84
2022/12/10 00:46:54;;;;;;;56.63;31.23;;;2.50;99.90;;;;;;10239118;29;20205;-84
2022/12/10 00:51:57;;;;;;;51.60;27.50;;;2.60;99.90;;;;;;10238933;29;20265;-84
2022/12/10 00:56:59;;;;;;;44.67;27.07;;;3.00;99.90;;;;;;10238637;29;20591;-84
2022/12/10 01:02:01;;;;;;;46.30;27.33;;;3.70;99.90;;;;;;10238500;29;20230;-84
2022/12/10 01:07:04;;;;;;;43.30;25.70;;;3.10;99.90;;;;;;10254150;29;20319;-84
2022/12/10 01:12:12;;;;;;;39.07;23.47;;;3.50;99.90;;;;;;10255252;29;20213;-85
2022/12/10 01:17:15;;;;;;;33.50;21.87;;;4.20;99.90;;;;;;10253736;29;20225;-84
2022/12/10 01:22:19;;;;;;;21.47;14.03;;;4.90;99.90;;;;;;10253803;29;20202;-84
2022/12/10 01:27:21;;;;;;;39.40;23.77;;;4.80;99.90;;;;;;10253319;29;20213;-84
2022/12/10 01:32:24;;;;;;;30.17;18.90;;;4.30;99.90;;;;;;10254332;28;20235;-84
2022/12/10 01:37:26;;;;;;;31.53;19.37;;;4.20;99.90;;;;;;10254204;29;20277;-84
2022/12/10 01:42:29;;;;;;;35.80;21.80;;;4.10;99.90;;;;;;10252243;29;20238;-84
2022/12/10 01:47:32;;;;;;;31.77;19.77;;;4.50;99.90;;;;;;10252359;29;20257;-84
2022/12/10 01:52:35;;;;;;;30.63;19.43;;;4.30;99.90;;;;;;10253844;29;20257;-84
2022/12/10 01:57:38;;;;;;;27.07;15.87;;;4.70;99.90;;;;;;10253469;29;20265;-84
2022/12/10 02:02:56;;;;;;;28.80;16.97;;;4.80;99.90;;;;;;10252176;29;20576;-84
2022/12/10 02:08:20;;;;;;;35.80;21.40;;;4.70;99.90;;;;;;10252019;29;20272;-84
2022/12/10 02:13:31;;;;;;;25.00;15.00;;;4.60;99.90;;;;;;10236050;29;20214;-84
2022/12/10 02:18:41;;;;;;;29.70;18.40;;;4.80;99.90;;;;;;10251793;29;20234;-84
2022/12/10 02:23:51;;;;;;;29.53;18.20;;;4.20;99.90;;;;;;10251412;29;20206;-84
2022/12/10 02:29:14;;;;;;;31.17;18.37;;;4.30;99.90;;;;;;10252280;29;20201;-84
2022/12/10 02:34:23;;;;;;;39.17;22.30;;;4.00;99.90;;;;;;10249768;29;20261;-84
2022/12/10 02:39:31;;;;;;;23.23;13.77;;;4.00;99.90;;;;;;10250059;29;20292;-84
2022/12/10 02:44:39;;;;;;;31.43;19.10;;;5.30;99.90;;;;;;10242539;29;20210;-84
2022/12/10 02:49:46;;;;;;;22.40;13.47;;;5.00;99.90;;;;;;10258599;29;20211;-84
2022/12/10 02:54:50;;;;;;;31.50;21.33;;;4.50;99.90;;;;;;10258410;29;20207;-84
2022/12/10 03:00:00;;;;;;;36.43;21.23;;;4.20;99.90;;;;;;10258301;29;20331;-84
2022/12/10 03:05:24;;;;;;;30.97;19.93;;;4.40;99.90;;;;;;10258039;29;20612;-84
2022/12/10 03:10:39;;;;;;;27.00;17.27;;;3.50;99.90;;;;;;10259239;29;20268;-84
2022/12/10 03:15:44;;;;;;;22.03;13.90;;;3.90;99.90;;;;;;10259157;29;20226;-84
2022/12/10 03:20:48;;;;;;;31.03;20.23;;;4.10;99.90;;;;;;10257757;29;20268;-84
2022/12/10 03:25:50;;;;;;;29.70;18.70;;;4.50;99.90;;;;;;10258547;29;20248;-84
2022/12/10 03:30:55;;;;;;;25.90;16.60;;;4.70;99.90;;;;;;10258515;29;20614;-84
2022/12/10 03:35:58;;;;;;;19.83;13.07;;;4.60;99.90;;;;;;10258429;29;20198;-84
2022/12/10 03:41:00;;;;;;;22.20;12.70;;;6.00;99.90;;;;;;10256700;29;20616;-84
2022/12/10 03:46:03;;;;;;;32.97;20.33;;;6.40;99.90;;;;;;10258051;29;20195;-84
2022/12/10 03:51:05;;;;;;;32.97;20.47;;;4.70;99.90;;;;;;10257704;28;20206;-85
2022/12/10 03:56:08;;;;;;;27.00;17.00;;;3.60;99.90;;;;;;10256441;29;20492;-85
2022/12/10 04:01:11;;;;;;;32.30;19.67;;;3.30;99.90;;;;;;10257474;29;20218;-85
2022/12/10 04:06:16;;;;;;;23.57;15.33;;;3.20;99.90;;;;;;10255898;29;20746;-85
2022/12/10 04:11:19;;;;;;;29.53;18.67;;;3.90;99.90;;;;;;10255957;29;20287;-85
2022/12/10 04:16:29;;;;;;;32.23;19.07;;;3.70;99.90;;;;;;10257137;29;20229;-85
2022/12/10 04:26:57;;;;;;;21.67;14.67;;;4.70;99.90;;;;;;10256519;29;20596;-85
2022/12/10 04:32:00;;;;;;;22.87;15.13;;;5.10;99.90;;;;;;10256433;29;20206;-85
2022/12/10 04:37:03;;;;;;;21.30;13.33;;;4.70;99.90;;;;;;10256309;29;20194;-85
2022/12/10 04:42:06;;;;;;;35.33;22.37;;;5.00;99.90;;;;;;10254662;29;20288;-85
2022/12/10 04:47:10;;;;;;;32.50;19.00;;;4.90;99.90;;;;;;10255853;29;20197;-85
2022/12/10 04:52:14;;;;;;;35.13;22.13;;;5.50;99.90;;;;;;10255655;29;20198;-85
2022/12/10 04:57:16;;;;;;;27.43;17.57;;;4.80;99.90;;;;;;10255251;29;20210;-85
2022/12/10 05:02:19;;;;;;;31.63;20.07;;;4.00;99.90;;;;;;10255192;29;20580;-85
2022/12/10 05:07:21;;;;;;;35.00;22.17;;;3.30;99.90;;;;;;10254568;28;20227;-85
2022/12/10 05:12:23;;;;;;;36.97;22.77;;;3.20;99.90;;;;;;10253465;29;20563;-84
2022/12/10 05:17:26;;;;;;;38.00;23.00;;;3.00;99.90;;;;;;10254830;29;20198;-85
2022/12/10 05:27:51;;;;;;;38.80;24.07;;;2.20;99.90;;;;;;10254242;29;20210;-85
2022/12/10 05:32:53;;;;;;;36.63;24.00;;;2.20;99.90;;;;;;10254074;29;20213;-85
2022/12/10 05:37:56;;;;;;;34.53;21.57;;;2.20;99.90;;;;;;10253782;29;20229;-85
2022/12/10 05:42:58;;;;;;;35.10;22.57;;;2.60;99.90;;;;;;10253408;29;20230;-85
2022/12/10 05:48:01;;;;;;;40.00;22.57;;;2.40;99.90;;;;;;10253474;29;20234;-85
2022/12/10 05:53:03;;;;;;;34.70;23.07;;;2.50;99.90;;;;;;10252001;29;20206;-85
2022/12/10 05:58:06;;;;;;;38.13;24.17;;;2.30;99.90;;;;;;10253009;29;20676;-85
2022/12/10 06:03:09;;;;;;;38.13;24.13;;;2.50;99.90;;;;;;10251348;29;20206;-85
2022/12/10 06:08:11;;;;;;;35.97;23.57;;;2.50;99.90;;;;;;10235658;29;20759;-85
2022/12/10 06:13:14;;;;;;;41.90;26.47;;;2.20;99.90;;;;;;10253320;29;20198;-85
2022/12/10 06:18:16;;;;;;;38.67;24.90;;;2.00;99.90;;;;;;10252325;28;20687;-85
2022/12/10 06:23:18;;;;;;;42.37;26.40;;;1.80;99.90;;;;;;10253024;29;20191;-85
2022/12/10 06:28:21;;;;;;;40.53;24.13;;;1.60;99.90;;;;;;10252774;29;20374;-85
2022/12/10 06:33:23;;;;;;;35.00;23.90;;;2.10;99.90;;;;;;10252829;29;20202;-85
2022/12/10 06:38:26;;;;;;;34.63;21.50;;;1.80;99.90;;;;;;10251154;29;20226;-85
2022/12/10 06:43:29;;;;;;;34.07;20.87;;;1.90;99.90;;;;;;10252502;29;20202;-85
2022/12/10 06:48:31;;;;;;;35.23;22.43;;;1.90;99.90;;;;;;10251332;29;20206;-85
2022/12/10 06:53:35;;;;;;;36.43;22.57;;;2.00;99.90;;;;;;10252411;29;20253;-85
2022/12/10 06:58:40;;;;;;;37.13;22.77;;;2.30;99.90;;;;;;10251140;29;20221;-85
2022/12/10 07:03:43;;;;;;;37.43;21.90;;;2.00;99.90;;;;;;10252146;29;20230;-85
2022/12/10 07:08:46;;;;;;;34.87;22.63;;;1.90;99.90;;;;;;10252105;29;20194;-85
2022/12/10 07:13:48;;;;;;;36.67;20.77;;;1.80;99.90;;;;;;10251894;29;20234;-85
2022/12/10 07:18:51;;;;;;;39.03;23.53;;;2.00;99.90;;;;;;10251807;29;20269;-85
2022/12/10 07:23:57;;;;;;;37.33;21.70;;;2.20;99.90;;;;;;10251805;29;20231;-85
2022/12/10 07:29:01;;;;;;;39.77;24.17;;;2.00;99.90;;;;;;10254882;28;20701;-85
2022/12/10 07:34:03;;;;;;;43.03;23.87;;;2.20;99.90;;;;;;10259072;29;20726;-85
2022/12/10 07:39:08;;;;;;;41.23;24.60;;;2.30;99.90;;;;;;10257515;29;20226;-85
2022/12/10 07:44:12;;;;;;;45.60;27.93;;;2.30;99.90;;;;;;10258604;29;20668;-85
2022/12/10 07:49:15;;;;;;;41.50;22.97;;;2.30;99.90;;;;;;10256827;29;20675;-85
2022/12/10 07:54:19;;;;;;;48.87;29.13;;;2.10;99.90;;;;;;10257205;29;20194;-85
2022/12/10 07:59:21;;;;;;;53.23;30.07;;;1.90;99.90;;;;;;10258229;29;20222;-85
2022/12/10 08:04:23;;;;;;;52.30;30.90;;;1.80;99.90;;;;;;10256829;29;20210;-85
2022/12/10 08:09:26;;;;;;;54.73;32.03;;;2.30;99.90;;;;;;10257018;29;20230;-85
2022/12/10 08:14:28;;;;;;;55.93;30.90;;;2.40;99.90;;;;;;10256433;29;20198;-85
2022/12/10 08:19:32;;;;;;;51.23;30.13;;;2.30;99.90;;;;;;10257392;28;20222;-85
2022/12/10 08:24:34;;;;;;;53.47;31.73;;;2.50;99.90;;;;;;10255649;29;20620;-85
2022/12/10 08:29:37;;;;;;;54.37;32.67;;;2.50;99.90;;;;;;10255515;29;20210;-85
2022/12/10 08:34:39;;;;;;;53.53;32.33;;;2.30;99.90;;;;;;10256879;28;20587;-85
2022/12/10 08:39:42;;;;;;;58.50;33.27;;;2.20;99.90;;;;;;10254502;28;20233;-85
2022/12/10 08:44:44;;;;;;;50.47;31.57;;;2.20;99.90;;;;;;10256342;29;20683;-85
2022/12/10 08:49:47;;;;;;;52.40;32.13;;;2.20;99.90;;;;;;10256410;29;20226;-85
2022/12/10 08:54:49;;;;;;;52.10;30.57;;;2.10;99.90;;;;;;10254728;29;20753;-85
2022/12/10 08:59:51;;;;;;;52.90;30.53;;;2.00;99.90;;;;;;10255650;29;20393;-85
2022/12/10 09:04:54;;;;;;;41.53;22.90;;;2.10;99.90;;;;;;10254419;29;20203;-85
2022/12/10 09:09:57;;;;;;;62.80;35.70;;;3.20;99.90;;;;;;10255517;29;20199;-85
2022/12/10 09:14:59;;;;;;;49.40;32.63;;;3.60;99.90;;;;;;10255202;29;20573;-85
2022/12/10 09:20:04;;;;;;;44.40;29.30;;;3.10;99.90;;;;;;10255042;29;20253;-85
2022/12/10 09:25:09;;;;;;;36.90;24.73;;;2.80;99.90;;;;;;10253871;29;20253;-84
2022/12/10 09:30:12;;;;;;;35.47;22.37;;;2.60;99.90;;;;;;10254473;29;20635;-85
2022/12/10 09:35:14;;;;;;;36.53;23.10;;;2.80;99.90;;;;;;10254633;29;20202;-85
2022/12/10 09:40:22;;;;;;;35.00;21.67;;;3.50;99.90;;;;;;10253808;29;20237;-85
2022/12/10 09:46:00;;;;;;;31.90;20.80;;;2.90;99.90;;;;;;10254159;29;20206;-84
2022/12/10 09:51:25;;;;;;;33.90;20.63;;;2.70;99.90;;;;;;10115484;29;20216;-84
2022/12/10 09:56:36;;;;;;;34.20;20.20;;;2.50;99.90;;;;;;10131528;29;20279;-85
2022/12/10 10:01:39;;;;;;;28.13;18.73;;;2.40;99.90;;;;;;10131588;29;20234;-85
2022/12/10 10:06:42;;;;;;;32.90;20.23;;;2.30;99.90;;;;;;10131083;29;20574;-84
2022/12/10 10:11:44;;;;;;;29.77;16.90;;;2.30;99.90;;;;;;10130856;29;20270;-84
2022/12/10 10:16:54;;;;;;;29.27;18.47;;;2.60;99.90;;;;;;10130966;29;20202;-85
2022/12/10 10:21:57;;;;;;;32.47;19.53;;;2.70;99.90;;;;;;10130616;29;20360;-85
2022/12/10 10:27:13;;;;;;;29.67;17.90;;;2.60;99.90;;;;;;10213710;29;20626;-85
2022/12/10 10:32:21;;;;;;;31.00;20.10;;;2.70;99.90;;;;;;10251614;29;20225;-85
2022/12/10 10:37:31;;;;;;;30.73;18.97;;;2.30;99.90;;;;;;10251477;29;20197;-85
2022/12/10 10:42:38;;;;;;;31.10;19.33;;;2.40;99.90;;;;;;10252351;29;20232;-85
2022/12/10 10:47:40;;;;;;;27.37;18.20;;;2.40;99.90;;;;;;10251334;29;20561;-85
2022/12/10 10:52:42;;;;;;;34.93;21.47;;;2.50;99.90;;;;;;10251187;29;20198;-85
2022/12/10 10:57:45;;;;;;;31.10;21.27;;;2.50;99.90;;;;;;10250442;29;20638;-85
2022/12/10 11:02:48;;;;;;;34.93;21.33;;;2.30;99.90;;;;;;10253222;28;20260;-85
2022/12/10 11:08:17;;;;;;;34.87;22.60;;;2.00;99.90;;;;;;10259559;28;20637;-85
2022/12/10 11:13:27;;;;;;;33.20;22.23;;;1.90;99.90;;;;;;10257837;29;20219;-85
2022/12/10 11:18:29;;;;;;;24.90;15.60;;;1.90;99.90;;;;;;10258490;29;20253;-85
2022/12/10 11:23:41;;;;;;;30.70;21.23;;;1.80;99.90;;;;;;10259294;29;20229;-85
2022/12/10 11:28:55;;;;;;;35.07;21.27;;;1.90;99.90;;;;;;10257656;29;20235;-85
2022/12/10 11:34:12;;;;;;;33.27;21.00;;;2.30;99.90;;;;;;10258955;29;20212;-85
2022/12/10 11:39:47;;;;;;;29.03;17.80;;;2.90;99.90;;;;;;10258688;29;20229;-85
2022/12/10 11:45:06;;;;;;;35.83;21.67;;;3.10;99.90;;;;;;10256823;29;20214;-85
2022/12/10 11:50:09;;;;;;;22.20;14.90;;;2.60;99.90;;;;;;10258446;29;20196;-85
2022/12/10 11:55:35;;;;;;;26.17;17.67;;;2.70;99.90;;;;;;10258040;28;20203;-85
2022/12/10 12:00:45;;;;;;;37.67;21.73;;;2.30;99.90;;;;;;10256862;29;20214;-85
2022/12/10 12:06:06;;;;;;;29.50;17.23;;;2.00;99.90;;;;;;10257846;29;20199;-85
2022/12/10 12:11:36;;;;;;;31.40;20.43;;;2.10;99.90;;;;;;10256364;29;20257;-85
2022/12/10 12:16:47;;;;;;;29.60;19.03;;;2.60;99.90;;;;;;10255891;28;20263;-85
2022/12/10 12:21:50;;;;;;;31.13;19.40;;;2.20;99.90;;;;;;10239541;29;20230;-85
2022/12/10 12:27:23;;;;;;;28.77;18.73;;;2.00;99.90;;;;;;10256448;29;20199;-85
2022/12/10 12:32:56;;;;;;;29.47;18.47;;;2.00;99.90;;;;;;10226971;29;20223;-85
2022/12/10 12:38:06;;;;;;;31.03;19.50;;;1.60;99.90;;;;;;10254839;29;20214;-85
2022/12/10 12:43:14;;;;;;;31.50;19.43;;;1.60;99.90;;;;;;10176065;29;20787;-85
2022/12/10 12:48:34;;;;;;;30.33;19.80;;;1.70;99.90;;;;;;10176869;29;20267;-85
2022/12/10 12:53:36;;;;;;;31.27;20.50;;;1.80;99.90;;;;;;10176568;29;20229;-85
2022/12/10 12:58:56;;;;;;;14.03;9.60;;;1.90;99.90;;;;;;10176215;29;20208;-85
2022/12/10 13:03:58;;;;;;;24.53;16.53;;;2.30;99.90;;;;;;10176155;29;20227;-85
2022/12/10 13:09:13;;;;;;;24.50;16.90;;;2.70;99.90;;;;;;10176158;29;20242;-85
2022/12/10 13:14:29;;;;;;;27.53;19.17;;;2.00;99.90;;;;;;10159332;29;20246;-86
2022/12/10 13:19:33;;;;;;;28.10;18.70;;;2.00;99.90;;;;;;10174302;29;20211;-85
2022/12/10 13:24:35;;;;;;;16.47;11.23;;;1.60;99.90;;;;;;10174245;29;20748;-85
2022/12/10 13:29:56;;;;;;;23.60;15.87;;;1.90;99.90;;;;;;10174288;29;20200;-84
2022/12/10 13:35:07;;;;;;;33.00;22.57;;;1.80;99.90;;;;;;10174229;29;20201;-83
2022/12/10 13:40:10;;;;;;;25.43;16.53;;;1.80;99.90;;;;;;10206878;29;20226;-84
2022/12/10 13:45:25;;;;;;;27.17;16.63;;;1.60;99.90;;;;;;10253920;29;20203;-84
2022/12/10 13:50:45;;;;;;;22.13;15.57;;;1.40;99.90;;;;;;10252415;29;20257;-84
2022/12/10 13:56:00;;;;;;;14.67;10.70;;;1.90;99.90;;;;;;10252255;29;20235;-84
2022/12/10 14:01:44;;;;;;;25.93;15.73;;;2.10;99.90;;;;;;10251939;29;20230;-84
2022/12/10 14:06:48;;;;;;;24.33;16.30;;;2.10;99.90;;;;;;10253341;29;20215;-85
2022/12/10 14:11:57;;;;;;;23.30;14.47;;;1.80;99.90;;;;;;10253412;29;20204;-84
2022/12/10 14:17:04;;;;;;;23.13;16.00;;;1.80;99.90;;;;;;10252081;29;20209;-84
2022/12/10 14:22:15;;;;;;;21.17;14.93;;;1.30;99.90;;;;;;10252049;29;20629;-84
2022/12/10 14:27:23;;;;;;;22.40;13.93;;;1.20;99.90;;;;;;10253002;29;20202;-84
2022/12/10 14:32:32;;;;;;;23.33;14.57;;;1.50;99.90;;;;;;10252988;29;20248;-84
2022/12/10 14:37:39;;;;;;;22.67;15.00;;;1.50;99.90;;;;;;10252138;28;20202;-84
2022/12/10 14:42:41;;;;;;;19.33;12.40;;;1.20;99.90;;;;;;10252472;29;20289;-84
2022/12/10 14:47:44;;;;;;;19.50;12.53;;;1.00;99.90;;;;;;10252692;29;20199;-84
2022/12/10 14:52:52;;;;;;;22.20;14.27;;;0.90;99.90;;;;;;10252504;29;20203;-84
2022/12/10 14:57:59;;;;;;;21.13;15.10;;;0.80;99.90;;;;;;10252299;29;20556;-84
2022/12/10 15:03:08;;;;;;;18.00;12.23;;;0.50;99.90;;;;;;10252362;29;20312;-84
2022/12/10 15:08:16;;;;;;;15.53;9.77;;;0.50;99.90;;;;;;10252213;29;20194;-84
2022/12/10 15:13:24;;;;;;;18.67;12.80;;;0.80;99.90;;;;;;10252133;29;20242;-84
2022/12/10 15:18:32;;;;;;;21.23;14.90;;;1.10;99.90;;;;;;10251988;29;20199;-84
2022/12/10 15:23:35;;;;;;;51.27;32.13;;;0.80;99.90;;;;;;10250621;29;20238;-84
2022/12/10 15:28:40;;;;;;;44.10;28.40;;;1.00;99.90;;;;;;10251794;29;20199;-84
2022/12/10 15:34:01;;;;;;;17.80;12.60;;;0.90;99.90;;;;;;10251624;29;20617;-85
2022/12/10 15:39:13;;;;;;;24.70;16.93;;;1.00;99.90;;;;;;10250442;29;20654;-85
2022/12/10 15:44:32;;;;;;;50.87;32.93;;;0.90;99.90;;;;;;10250272;29;20232;-84
2022/12/10 15:49:35;;;;;;;36.33;23.10;;;0.90;99.90;;;;;;10255343;28;20610;-84
2022/12/10 15:54:39;;;;;;;17.23;12.03;;;1.00;99.90;;;;;;10257429;29;20249;-84
2022/12/10 15:59:42;;;;;;;17.00;12.27;;;1.20;99.90;;;;;;10258168;29;20209;-84
2022/12/10 16:04:46;;;;;;;22.97;15.17;;;1.20;99.90;;;;;;10256653;29;20264;-84
2022/12/10 16:09:48;;;;;;;20.87;15.40;;;1.20;99.90;;;;;;10257905;29;20556;-84
2022/12/10 16:14:56;;;;;;;17.80;12.27;;;0.90;99.90;;;;;;10256533;29;20231;-84
2022/12/10 16:20:19;;;;;;;28.63;15.73;;;0.70;99.90;;;;;;10257562;29;20195;-84
2022/12/10 16:25:23;;;;;;;22.13;13.47;;;1.00;99.90;;;;;;10257502;29;20195;-84
2022/12/10 16:30:36;;;;;;;14.43;9.87;;;1.20;99.90;;;;;;10256979;29;20279;-84
2022/12/10 16:35:50;;;;;;;21.87;13.33;;;1.20;99.90;;;;;;10256994;29;20203;-84
2022/12/10 16:40:53;;;;;;;25.63;14.23;;;1.50;99.90;;;;;;10256429;29;20236;-84
2022/12/10 16:45:56;;;;;;;18.43;11.57;;;1.30;99.90;;;;;;10256584;29;20610;-84
2022/12/10 16:50:58;;;;;;;16.73;11.20;;;1.60;99.90;;;;;;10256329;29;20250;-84
2022/12/10 16:56:13;;;;;;;14.87;11.17;;;1.40;99.90;;;;;;10256291;29;20207;-84
2022/12/10 17:01:24;;;;;;;17.40;12.70;;;1.40;99.90;;;;;;10255154;28;20567;-84
2022/12/10 17:06:28;;;;;;;14.23;10.97;;;1.30;99.90;;;;;;10254457;29;20199;-84
2022/12/10 17:11:45;;;;;;;19.13;11.93;;;0.90;99.90;;;;;;10254210;29;20695;-84
2022/12/10 17:16:48;;;;;;;16.17;10.60;;;1.00;99.90;;;;;;10255515;29;20190;-84
2022/12/10 17:21:51;;;;;;;15.77;11.07;;;0.90;99.90;;;;;;10254082;28;20287;-84
2022/12/10 17:26:57;;;;;;;18.47;11.00;;;1.00;99.90;;;;;;10254829;29;20248;-84
2022/12/10 17:31:59;;;;;;;17.10;11.00;;;0.90;99.90;;;;;;10255148;29;20198;-84
2022/12/10 17:37:12;;;;;;;18.30;13.23;;;0.80;99.90;;;;;;10254822;29;20201;-84
2022/12/10 17:42:14;;;;;;;19.60;12.63;;;0.70;99.90;;;;;;10237404;29;20314;-84
2022/12/10 17:47:24;;;;;;;18.47;11.97;;;0.80;99.90;;;;;;10254287;29;20202;-84
2022/12/10 17:52:27;;;;;;;14.03;9.93;;;0.60;99.90;;;;;;10254149;29;20206;-84
2022/12/10 17:57:29;;;;;;;16.13;11.97;;;0.70;99.90;;;;;;10253843;29;20600;-84
2022/12/10 18:02:31;;;;;;;18.03;12.97;;;0.80;99.90;;;;;;10252567;29;20615;-84
2022/12/10 18:07:34;;;;;;;14.97;10.67;;;0.90;99.90;;;;;;10251985;29;20685;-84
2022/12/10 18:12:36;;;;;;;19.00;12.87;;;1.00;99.90;;;;;;10253295;28;20209;-84
2022/12/10 18:17:39;;;;;;;17.03;11.73;;;1.30;99.90;;;;;;10251901;29;20215;-84
2022/12/10 18:22:42;;;;;;;15.57;11.97;;;1.30;99.90;;;;;;10253067;29;20226;-83
2022/12/10 18:27:45;;;;;;;18.50;12.43;;;1.00;99.90;;;;;;10252991;29;20213;-84
2022/12/10 18:32:48;;;;;;;18.47;13.27;;;1.10;99.90;;;;;;10251484;29;20214;-83
2022/12/10 18:37:50;;;;;;;18.93;13.57;;;1.30;99.90;;;;;;10251466;29;20208;-84
2022/12/10 18:42:53;;;;;;;20.53;13.37;;;1.20;99.90;;;;;;10252426;29;20229;-84
2022/12/10 18:47:55;;;;;;;21.90;14.50;;;1.20;99.90;;;;;;10252549;29;20611;-84
2022/12/10 18:53:00;;;;;;;22.70;15.20;;;1.20;99.90;;;;;;10252461;29;20210;-84
2022/12/10 18:58:02;;;;;;;21.60;14.33;;;1.40;99.90;;;;;;10251181;29;20217;-84
2022/12/10 19:03:08;;;;;;;31.87;17.27;;;1.30;99.90;;;;;;10252271;29;20229;-84
2022/12/10 19:08:12;;;;;;;25.53;15.77;;;1.80;99.90;;;;;;10235361;29;20571;-84
2022/12/10 19:13:15;;;;;;;26.10;17.43;;;1.50;99.90;;;;;;10252047;29;20213;-84
2022/12/10 19:18:17;;;;;;;26.80;17.50;;;1.20;99.90;;;;;;10250904;29;20247;-84
2022/12/10 19:23:20;;;;;;;20.40;13.20;;;1.00;99.90;;;;;;10252899;28;20632;-84
2022/12/10 19:28:23;;;;;;;22.70;16.03;;;1.00;99.90;;;;;;10257971;29;20266;-84
2022/12/10 19:33:25;;;;;;;21.90;15.37;;;1.10;99.90;;;;;;10258253;29;20294;-84
2022/12/10 19:38:27;;;;;;;21.80;15.50;;;1.00;99.90;;;;;;10258932;29;20234;-84
2022/12/10 19:43:30;;;;;;;20.63;12.87;;;0.50;99.90;;;;;;10257670;29;20218;-84
2022/12/10 19:48:32;;;;;;;16.17;11.40;;;0.50;99.90;;;;;;10258775;29;20557;-84
2022/12/10 19:53:38;;;;;;;21.03;13.80;;;0.50;99.90;;;;;;10257440;29;20546;-84
2022/12/10 19:58:40;;;;;;;23.97;14.63;;;0.20;99.90;;;;;;10258330;29;20198;-84
2022/12/10 20:03:43;;;;;;;19.77;13.63;;;0.40;99.90;;;;;;10258238;29;20654;-84
2022/12/10 20:08:47;;;;;;;22.17;14.17;;;0.70;99.90;;;;;;10258087;29;20190;-84
2022/12/10 20:13:49;;;;;;;18.93;13.03;;;0.50;99.90;;;;;;10257781;29;20206;-84
2022/12/10 20:18:53;;;;;;;21.00;14.27;;;0.40;99.90;;;;;;10257655;29;20194;-84
2022/12/10 20:23:57;;;;;;;21.10;12.90;;;0.50;99.90;;;;;;10257364;28;20255;-84
2022/12/10 20:29:16;;;;;;;14.97;10.30;;;0.40;99.90;;;;;;10256189;29;20249;-84
2022/12/10 20:34:21;;;;;;;24.40;14.13;;;0.60;99.90;;;;;;10256078;28;20757;-84
2022/12/10 20:39:26;;;;;;;17.13;10.67;;;0.80;99.90;;;;;;10255121;29;20802;-84
2022/12/10 20:44:29;;;;;;;16.10;11.23;;;0.70;99.90;;;;;;10256593;29;20211;-84
2022/12/10 20:49:31;;;;;;;19.07;12.77;;;0.80;99.90;;;;;;10254922;29;20259;-84
2022/12/10 20:54:34;;;;;;;19.47;12.80;;;0.90;99.90;;;;;;10255215;29;20202;-84
2022/12/10 20:59:36;;;;;;;19.17;12.73;;;1.20;99.90;;;;;;10256148;29;20207;-84
2022/12/10 21:04:39;;;;;;;18.03;12.53;;;0.90;99.90;;;;;;10255844;29;20214;-85
2022/12/10 21:09:43;;;;;;;20.67;13.67;;;1.20;99.90;;;;;;10255714;29;20207;-84
2022/12/10 21:14:45;;;;;;;17.77;12.10;;;1.10;99.90;;;;;;10255523;29;20688;-84
2022/12/10 21:20:05;;;;;;;18.47;12.07;;;0.90;99.90;;;;;;10255630;29;20631;-84
2022/12/10 21:25:11;;;;;;;18.53;14.33;;;1.50;99.90;;;;;;10255324;29;20224;-84
2022/12/10 21:30:14;;;;;;;19.43;13.43;;;1.50;99.90;;;;;;10253577;29;20266;-84
2022/12/10 21:35:16;;;;;;;24.30;14.30;;;1.40;99.90;;;;;;10237915;29;20253;-84
2022/12/10 21:40:18;;;;;;;17.87;11.03;;;1.60;99.90;;;;;;10254994;29;20282;-84
2022/12/10 21:45:21;;;;;;;19.77;14.10;;;1.90;99.90;;;;;;10253980;28;20222;-84
2022/12/10 21:50:25;;;;;;;25.43;15.53;;;1.00;99.90;;;;;;10254431;29;20257;-84
2022/12/10 21:55:28;;;;;;;23.23;16.63;;;1.10;99.90;;;;;;10252762;29;20633;-84
2022/12/10 22:00:32;;;;;;;16.37;11.63;;;1.10;99.90;;;;;;10253693;29;20206;-84
2022/12/10 22:05:44;;;;;;;20.83;14.10;;;1.60;99.90;;;;;;10252690;28;20282;-84
2022/12/10 22:10:46;;;;;;;31.40;16.60;;;1.90;99.90;;;;;;10253820;28;20630;-84
2022/12/10 22:15:52;;;;;;;23.97;16.17;;;1.10;99.90;;;;;;10253333;29;20210;-84
2022/12/10 22:20:57;;;;;;;23.77;15.37;;;0.70;99.90;;;;;;10252163;29;20236;-84
2022/12/10 22:26:05;;;;;;;23.20;14.93;;;0.70;99.90;;;;;;10254253;29;20280;-84
2022/12/10 22:31:08;;;;;;;24.70;16.20;;;0.90;99.90;;;;;;10252908;29;20203;-84
2022/12/10 22:36:10;;;;;;;18.73;12.10;;;1.20;99.90;;;;;;10251266;29;20691;-84
2022/12/10 22:41:14;;;;;;;24.83;15.17;;;1.50;99.90;;;;;;10251369;29;20286;-84
2022/12/10 22:46:17;;;;;;;25.23;16.47;;;1.20;99.90;;;;;;10251650;29;20585;-84
2022/12/10 22:51:19;;;;;;;22.80;14.07;;;1.30;99.90;;;;;;10252007;29;20610;-84
2022/12/10 22:56:22;;;;;;;24.37;15.57;;;1.40;99.90;;;;;;10251040;29;20215;-84
2022/12/10 23:01:25;;;;;;;25.97;16.57;;;1.30;99.90;;;;;;10259617;29;20569;-84
2022/12/10 23:06:28;;;;;;;26.03;15.80;;;1.30;99.90;;;;;;10260383;29;20267;-84
2022/12/10 23:11:30;;;;;;;25.20;15.30;;;1.30;99.90;;;;;;10258735;29;20266;-84
2022/12/10 23:16:32;;;;;;;19.77;13.17;;;1.30;99.90;;;;;;10260298;29;20204;-84
2022/12/10 23:21:35;;;;;;;21.53;13.53;;;1.50;99.90;;;;;;10258725;29;20211;-84
2022/12/10 23:26:37;;;;;;;22.53;13.30;;;1.40;99.90;;;;;;10258403;29;20269;-84
2022/12/10 23:31:45;;;;;;;17.87;11.53;;;1.40;99.90;;;;;;10259507;29;20239;-84
2022/12/10 23:36:48;;;;;;;17.70;11.40;;;1.90;99.90;;;;;;10257781;29;20202;-82
2022/12/10 23:41:53;;;;;;;21.10;14.00;;;1.60;99.90;;;;;;10258849;29;20234;-84
2022/12/10 23:46:55;;;;;;;24.07;16.07;;;1.30;99.90;;;;;;10258883;29;20214;-83
2022/12/10 23:51:58;;;;;;;22.47;14.33;;;0.90;99.90;;;;;;10258752;29;20202;-84
2022/12/10 23:57:05;;;;;;;17.93;12.40;;;1.10;99.90;;;;;;10256842;29;20267;-84
